sensor_id;sensor_type;location;lat;lon;timestamp;P1;durP1;ratioP1;P2;durP2;ratioP2
57643;SDS011;43474;46.510;6.686;2023-09-19T00:00:30;1.65;;;1.20;;
57643;SDS011;43474;46.510;6.686;2023-09-19T00:03:17;2.20;;;1.30;;
57643;SDS011;43474;46.510;6.686;2023-09-19T00:05:42;1.50;;;1.00;;
57643;SDS011;43474;46.510;6.686;2023-09-19T00:08:11;2.13;;;1.20;;
57643;SDS011;43474;46.510;6.686;2023-09-19T00:10:38;1.85;;;1.02;;
57643;SDS011;43474;46.510;6.686;2023-09-19T00:13:06;1.58;;;1.23;;
57643;SDS011;43474;46.510;6.686;2023-09-19T00:15:39;2.10;;;1.40;;
57643;SDS011;43474;46.510;6.686;2023-09-19T00:18:07;2.63;;;1.40;;
57643;SDS011;43474;46.510;6.686;2023-09-19T00:20:37;1.63;;;1.20;;
57643;SDS011;43474;46.510;6.686;2023-09-19T00:23:04;3.22;;;1.00;;
57643;SDS011;43474;46.510;6.686;2023-09-19T00:25:35;1.52;;;1.20;;
57643;SDS011;43474;46.510;6.686;2023-09-19T00:28:01;2.08;;;1.30;;
57643;SDS011;43474;46.510;6.686;2023-09-19T00:30:27;1.40;;;1.10;;
57643;SDS011;43474;46.510;6.686;2023-09-19T00:32:52;1.42;;;1.00;;
57643;SDS011;43474;46.510;6.686;2023-09-19T00:35:18;1.30;;;0.93;;
57643;SDS011;43474;46.510;6.686;2023-09-19T00:37:49;1.15;;;1.05;;
57643;SDS011;43474;46.510;6.686;2023-09-19T00:40:14;2.13;;;1.23;;
57643;SDS011;43474;46.510;6.686;2023-09-19T00:42:47;1.55;;;0.95;;
57643;SDS011;43474;46.510;6.686;2023-09-19T00:45:15;1.83;;;1.00;;
57643;SDS011;43474;46.510;6.686;2023-09-19T00:47:46;2.58;;;0.93;;
57643;SDS011;43474;46.510;6.686;2023-09-19T00:50:14;1.63;;;1.08;;
57643;SDS011;43474;46.510;6.686;2023-09-19T00:52:42;1.75;;;1.08;;
57643;SDS011;43474;46.510;6.686;2023-09-19T00:55:10;3.08;;;1.00;;
57643;SDS011;43474;46.510;6.686;2023-09-19T00:57:37;1.15;;;0.88;;
57643;SDS011;43474;46.510;6.686;2023-09-19T01:00:06;1.23;;;0.90;;
57643;SDS011;43474;46.510;6.686;2023-09-19T01:02:34;1.93;;;1.00;;
57643;SDS011;43474;46.510;6.686;2023-09-19T01:05:00;1.33;;;0.98;;
57643;SDS011;43474;46.510;6.686;2023-09-19T01:07:27;0.80;;;0.68;;
57643;SDS011;43474;46.510;6.686;2023-09-19T01:09:59;1.67;;;0.85;;
57643;SDS011;43474;46.510;6.686;2023-09-19T01:12:30;1.05;;;0.88;;
57643;SDS011;43474;46.510;6.686;2023-09-19T01:15:04;1.50;;;0.90;;
57643;SDS011;43474;46.510;6.686;2023-09-19T01:17:45;2.42;;;1.20;;
57643;SDS011;43474;46.510;6.686;2023-09-19T01:20:17;1.90;;;0.98;;
57643;SDS011;43474;46.510;6.686;2023-09-19T01:22:53;1.17;;;0.82;;
57643;SDS011;43474;46.510;6.686;2023-09-19T01:30:56;2.40;;;0.82;;
57643;SDS011;43474;46.510;6.686;2023-09-19T01:33:25;2.03;;;1.10;;
57643;SDS011;43474;46.510;6.686;2023-09-19T01:35:51;1.13;;;0.77;;
57643;SDS011;43474;46.510;6.686;2023-09-19T01:38:18;2.63;;;1.10;;
57643;SDS011;43474;46.510;6.686;2023-09-19T01:40:48;1.45;;;1.00;;
57643;SDS011;43474;46.510;6.686;2023-09-19T01:47:49;1.02;;;0.80;;
57643;SDS011;43474;46.510;6.686;2023-09-19T01:50:34;1.77;;;0.80;;
57643;SDS011;43474;46.510;6.686;2023-09-19T01:53:10;2.05;;;0.75;;
57643;SDS011;43474;46.510;6.686;2023-09-19T01:55:46;1.50;;;0.90;;
57643;SDS011;43474;46.510;6.686;2023-09-19T02:01:01;1.67;;;0.80;;
57643;SDS011;43474;46.510;6.686;2023-09-19T02:03:31;1.42;;;0.70;;
57643;SDS011;43474;46.510;6.686;2023-09-19T02:05:58;0.85;;;0.63;;
57643;SDS011;43474;46.510;6.686;2023-09-19T02:08:24;1.85;;;0.80;;
57643;SDS011;43474;46.510;6.686;2023-09-19T02:10:51;2.75;;;1.10;;
57643;SDS011;43474;46.510;6.686;2023-09-19T02:13:18;0.70;;;0.60;;
57643;SDS011;43474;46.510;6.686;2023-09-19T02:15:45;0.98;;;0.75;;
57643;SDS011;43474;46.510;6.686;2023-09-19T02:18:12;3.72;;;1.00;;
57643;SDS011;43474;46.510;6.686;2023-09-19T02:20:38;1.55;;;0.80;;
57643;SDS011;43474;46.510;6.686;2023-09-19T02:23:04;1.23;;;0.82;;
57643;SDS011;43474;46.510;6.686;2023-09-19T02:25:30;1.50;;;0.80;;
57643;SDS011;43474;46.510;6.686;2023-09-19T02:27:57;1.27;;;0.77;;
57643;SDS011;43474;46.510;6.686;2023-09-19T02:30:26;0.77;;;0.73;;
57643;SDS011;43474;46.510;6.686;2023-09-19T02:32:52;1.45;;;0.73;;
57643;SDS011;43474;46.510;6.686;2023-09-19T02:35:18;1.65;;;0.95;;
57643;SDS011;43474;46.510;6.686;2023-09-19T02:37:46;1.20;;;0.68;;
57643;SDS011;43474;46.510;6.686;2023-09-19T02:40:12;0.90;;;0.60;;
57643;SDS011;43474;46.510;6.686;2023-09-19T02:42:45;1.67;;;0.70;;
57643;SDS011;43474;46.510;6.686;2023-09-19T02:45:17;0.88;;;0.60;;
57643;SDS011;43474;46.510;6.686;2023-09-19T02:47:43;0.90;;;0.60;;
57643;SDS011;43474;46.510;6.686;2023-09-19T02:50:12;0.82;;;0.50;;
57643;SDS011;43474;46.510;6.686;2023-09-19T02:52:41;1.20;;;0.68;;
57643;SDS011;43474;46.510;6.686;2023-09-19T02:55:14;1.42;;;0.90;;
57643;SDS011;43474;46.510;6.686;2023-09-19T02:57:46;1.45;;;0.80;;
57643;SDS011;43474;46.510;6.686;2023-09-19T03:00:12;0.80;;;0.70;;
57643;SDS011;43474;46.510;6.686;2023-09-19T03:02:38;0.70;;;0.70;;
57643;SDS011;43474;46.510;6.686;2023-09-19T03:05:06;1.80;;;0.68;;
57643;SDS011;43474;46.510;6.686;2023-09-19T03:07:33;0.82;;;0.70;;
57643;SDS011;43474;46.510;6.686;2023-09-19T03:09:58;1.15;;;0.70;;
57643;SDS011;43474;46.510;6.686;2023-09-19T03:12:25;0.80;;;0.73;;
57643;SDS011;43474;46.510;6.686;2023-09-19T03:14:52;0.88;;;0.60;;
57643;SDS011;43474;46.510;6.686;2023-09-19T03:17:17;1.20;;;0.85;;
57643;SDS011;43474;46.510;6.686;2023-09-19T03:19:45;0.70;;;0.70;;
57643;SDS011;43474;46.510;6.686;2023-09-19T03:22:11;0.60;;;0.60;;
57643;SDS011;43474;46.510;6.686;2023-09-19T03:24:37;1.38;;;0.70;;
57643;SDS011;43474;46.510;6.686;2023-09-19T03:27:03;0.77;;;0.60;;
57643;SDS011;43474;46.510;6.686;2023-09-19T03:29:29;0.60;;;0.60;;
57643;SDS011;43474;46.510;6.686;2023-09-19T03:31:54;1.20;;;0.73;;
57643;SDS011;43474;46.510;6.686;2023-09-19T03:34:20;0.57;;;0.52;;
57643;SDS011;43474;46.510;6.686;2023-09-19T03:36:46;0.60;;;0.60;;
57643;SDS011;43474;46.510;6.686;2023-09-19T03:39:11;0.60;;;0.50;;
57643;SDS011;43474;46.510;6.686;2023-09-19T03:41:37;0.68;;;0.50;;
57643;SDS011;43474;46.510;6.686;2023-09-19T03:44:04;0.68;;;0.52;;
57643;SDS011;43474;46.510;6.686;2023-09-19T03:46:29;1.10;;;0.57;;
57643;SDS011;43474;46.510;6.686;2023-09-19T03:48:55;2.47;;;0.73;;
57643;SDS011;43474;46.510;6.686;2023-09-19T03:51:21;1.35;;;0.52;;
57643;SDS011;43474;46.510;6.686;2023-09-19T03:53:46;1.83;;;0.65;;
57643;SDS011;43474;46.510;6.686;2023-09-19T03:56:14;0.73;;;0.63;;
57643;SDS011;43474;46.510;6.686;2023-09-19T03:58:40;0.77;;;0.60;;
57643;SDS011;43474;46.510;6.686;2023-09-19T04:01:05;3.33;;;0.82;;
57643;SDS011;43474;46.510;6.686;2023-09-19T04:03:34;2.33;;;0.68;;
57643;SDS011;43474;46.510;6.686;2023-09-19T04:06:26;1.73;;;0.77;;
57643;SDS011;43474;46.510;6.686;2023-09-19T04:08:52;1.15;;;0.60;;
57643;SDS011;43474;46.510;6.686;2023-09-19T04:11:18;1.10;;;0.60;;
57643;SDS011;43474;46.510;6.686;2023-09-19T04:13:44;1.42;;;0.50;;
57643;SDS011;43474;46.510;6.686;2023-09-19T04:16:09;0.43;;;0.40;;
57643;SDS011;43474;46.510;6.686;2023-09-19T04:18:35;2.35;;;0.70;;
57643;SDS011;43474;46.510;6.686;2023-09-19T04:21:03;1.98;;;0.40;;
57643;SDS011;43474;46.510;6.686;2023-09-19T04:23:31;0.75;;;0.55;;
57643;SDS011;43474;46.510;6.686;2023-09-19T04:25:57;2.03;;;0.40;;
57643;SDS011;43474;46.510;6.686;2023-09-19T04:28:23;0.60;;;0.47;;
57643;SDS011;43474;46.510;6.686;2023-09-19T04:30:49;1.17;;;0.60;;
57643;SDS011;43474;46.510;6.686;2023-09-19T04:33:15;3.15;;;0.73;;
57643;SDS011;43474;46.510;6.686;2023-09-19T04:35:41;1.05;;;0.60;;
57643;SDS011;43474;46.510;6.686;2023-09-19T04:38:07;0.82;;;0.60;;
57643;SDS011;43474;46.510;6.686;2023-09-19T04:40:33;1.33;;;0.60;;
57643;SDS011;43474;46.510;6.686;2023-09-19T04:42:59;0.77;;;0.60;;
57643;SDS011;43474;46.510;6.686;2023-09-19T04:45:25;0.95;;;0.52;;
57643;SDS011;43474;46.510;6.686;2023-09-19T04:47:52;2.35;;;0.40;;
57643;SDS011;43474;46.510;6.686;2023-09-19T04:50:18;4.03;;;0.60;;
57643;SDS011;43474;46.510;6.686;2023-09-19T04:52:48;4.82;;;0.55;;
57643;SDS011;43474;46.510;6.686;2023-09-19T04:55:16;1.30;;;0.43;;
57643;SDS011;43474;46.510;6.686;2023-09-19T04:57:43;2.88;;;0.60;;
57643;SDS011;43474;46.510;6.686;2023-09-19T05:00:16;1.42;;;1.00;;
57643;SDS011;43474;46.510;6.686;2023-09-19T05:02:50;0.60;;;0.50;;
57643;SDS011;43474;46.510;6.686;2023-09-19T05:05:19;1.23;;;0.60;;
57643;SDS011;43474;46.510;6.686;2023-09-19T05:07:45;2.58;;;0.70;;
57643;SDS011;43474;46.510;6.686;2023-09-19T05:10:12;1.67;;;0.65;;
57643;SDS011;43474;46.510;6.686;2023-09-19T05:12:38;1.23;;;0.60;;
57643;SDS011;43474;46.510;6.686;2023-09-19T05:15:05;0.95;;;0.47;;
57643;SDS011;43474;46.510;6.686;2023-09-19T05:17:34;1.73;;;0.70;;
57643;SDS011;43474;46.510;6.686;2023-09-19T05:20:01;1.92;;;0.65;;
57643;SDS011;43474;46.510;6.686;2023-09-19T05:23:02;0.55;;;0.50;;
57643;SDS011;43474;46.510;6.686;2023-09-19T05:25:31;1.10;;;0.50;;
57643;SDS011;43474;46.510;6.686;2023-09-19T05:27:58;0.50;;;0.45;;
57643;SDS011;43474;46.510;6.686;2023-09-19T05:30:25;1.15;;;0.80;;
57643;SDS011;43474;46.510;6.686;2023-09-19T05:32:54;0.88;;;0.77;;
57643;SDS011;43474;46.510;6.686;2023-09-19T05:35:20;2.15;;;0.60;;
57643;SDS011;43474;46.510;6.686;2023-09-19T05:37:47;4.32;;;0.85;;
57643;SDS011;43474;46.510;6.686;2023-09-19T05:40:17;1.23;;;0.85;;
57643;SDS011;43474;46.510;6.686;2023-09-19T05:42:43;1.33;;;0.75;;
57643;SDS011;43474;46.510;6.686;2023-09-19T05:45:09;1.90;;;0.80;;
57643;SDS011;43474;46.510;6.686;2023-09-19T05:47:37;1.63;;;0.60;;
57643;SDS011;43474;46.510;6.686;2023-09-19T05:50:11;1.80;;;0.80;;
57643;SDS011;43474;46.510;6.686;2023-09-19T05:52:37;2.20;;;0.73;;
57643;SDS011;43474;46.510;6.686;2023-09-19T05:55:06;2.90;;;0.70;;
57643;SDS011;43474;46.510;6.686;2023-09-19T05:57:33;1.65;;;0.90;;
57643;SDS011;43474;46.510;6.686;2023-09-19T05:59:59;3.03;;;0.90;;
57643;SDS011;43474;46.510;6.686;2023-09-19T06:02:25;1.40;;;0.60;;
57643;SDS011;43474;46.510;6.686;2023-09-19T06:04:55;0.77;;;0.70;;
57643;SDS011;43474;46.510;6.686;2023-09-19T06:07:21;2.55;;;0.80;;
57643;SDS011;43474;46.510;6.686;2023-09-19T06:09:51;1.77;;;0.70;;
57643;SDS011;43474;46.510;6.686;2023-09-19T06:12:18;1.50;;;0.80;;
57643;SDS011;43474;46.510;6.686;2023-09-19T06:14:44;1.45;;;0.90;;
57643;SDS011;43474;46.510;6.686;2023-09-19T06:17:10;0.90;;;0.73;;
57643;SDS011;43474;46.510;6.686;2023-09-19T06:19:35;1.17;;;0.90;;
57643;SDS011;43474;46.510;6.686;2023-09-19T06:22:01;3.30;;;0.80;;
57643;SDS011;43474;46.510;6.686;2023-09-19T06:24:27;1.77;;;0.70;;
57643;SDS011;43474;46.510;6.686;2023-09-19T06:26:53;3.15;;;0.82;;
57643;SDS011;43474;46.510;6.686;2023-09-19T06:29:20;2.10;;;0.85;;
57643;SDS011;43474;46.510;6.686;2023-09-19T06:31:48;1.33;;;0.70;;
57643;SDS011;43474;46.510;6.686;2023-09-19T06:34:14;2.30;;;0.88;;
57643;SDS011;43474;46.510;6.686;2023-09-19T06:36:40;2.13;;;0.80;;
57643;SDS011;43474;46.510;6.686;2023-09-19T06:39:06;2.90;;;0.75;;
57643;SDS011;43474;46.510;6.686;2023-09-19T06:41:36;2.22;;;0.90;;
57643;SDS011;43474;46.510;6.686;2023-09-19T06:44:03;2.67;;;0.80;;
57643;SDS011;43474;46.510;6.686;2023-09-19T06:46:30;2.38;;;0.80;;
57643;SDS011;43474;46.510;6.686;2023-09-19T06:48:58;1.50;;;0.80;;
57643;SDS011;43474;46.510;6.686;2023-09-19T06:51:23;1.92;;;0.93;;
57643;SDS011;43474;46.510;6.686;2023-09-19T06:53:49;2.75;;;1.17;;
57643;SDS011;43474;46.510;6.686;2023-09-19T06:56:14;2.10;;;1.10;;
57643;SDS011;43474;46.510;6.686;2023-09-19T06:58:40;2.10;;;0.80;;
57643;SDS011;43474;46.510;6.686;2023-09-19T07:01:08;2.92;;;1.02;;
57643;SDS011;43474;46.510;6.686;2023-09-19T07:03:34;3.25;;;1.00;;
57643;SDS011;43474;46.510;6.686;2023-09-19T07:05:59;2.20;;;1.00;;
57643;SDS011;43474;46.510;6.686;2023-09-19T07:08:25;1.92;;;1.10;;
57643;SDS011;43474;46.510;6.686;2023-09-19T07:10:50;2.20;;;1.10;;
57643;SDS011;43474;46.510;6.686;2023-09-19T07:13:18;1.85;;;1.00;;
57643;SDS011;43474;46.510;6.686;2023-09-19T07:15:43;1.65;;;0.80;;
57643;SDS011;43474;46.510;6.686;2023-09-19T07:18:12;1.02;;;0.70;;
57643;SDS011;43474;46.510;6.686;2023-09-19T07:20:40;1.67;;;0.82;;
57643;SDS011;43474;46.510;6.686;2023-09-19T07:23:11;1.85;;;0.90;;
57643;SDS011;43474;46.510;6.686;2023-09-19T07:25:40;2.60;;;0.90;;
57643;SDS011;43474;46.510;6.686;2023-09-19T07:28:06;3.92;;;1.00;;
57643;SDS011;43474;46.510;6.686;2023-09-19T07:30:31;1.42;;;0.70;;
57643;SDS011;43474;46.510;6.686;2023-09-19T07:32:57;2.55;;;1.30;;
57643;SDS011;43474;46.510;6.686;2023-09-19T07:35:23;1.70;;;0.80;;
57643;SDS011;43474;46.510;6.686;2023-09-19T07:37:49;2.13;;;0.80;;
57643;SDS011;43474;46.510;6.686;2023-09-19T07:40:18;2.50;;;0.80;;
57643;SDS011;43474;46.510;6.686;2023-09-19T07:45:12;1.38;;;0.65;;
57643;SDS011;43474;46.510;6.686;2023-09-19T07:47:48;0.88;;;0.70;;
57643;SDS011;43474;46.510;6.686;2023-09-19T07:50:16;2.97;;;0.82;;
57643;SDS011;43474;46.510;6.686;2023-09-19T07:52:46;1.52;;;0.80;;
57643;SDS011;43474;46.510;6.686;2023-09-19T07:55:13;2.78;;;0.93;;
57643;SDS011;43474;46.510;6.686;2023-09-19T07:57:42;2.30;;;0.70;;
57643;SDS011;43474;46.510;6.686;2023-09-19T08:00:10;2.42;;;1.30;;
57643;SDS011;43474;46.510;6.686;2023-09-19T08:02:37;1.45;;;0.70;;
57643;SDS011;43474;46.510;6.686;2023-09-19T08:05:03;1.80;;;0.80;;
57643;SDS011;43474;46.510;6.686;2023-09-19T08:07:34;1.17;;;0.73;;
57643;SDS011;43474;46.510;6.686;2023-09-19T08:10:01;2.35;;;0.68;;
57643;SDS011;43474;46.510;6.686;2023-09-19T08:12:28;2.38;;;0.90;;
57643;SDS011;43474;46.510;6.686;2023-09-19T08:14:55;3.50;;;0.80;;
57643;SDS011;43474;46.510;6.686;2023-09-19T08:17:21;1.23;;;0.80;;
57643;SDS011;43474;46.510;6.686;2023-09-19T08:19:48;1.02;;;0.60;;
57643;SDS011;43474;46.510;6.686;2023-09-19T08:22:19;1.13;;;0.70;;
57643;SDS011;43474;46.510;6.686;2023-09-19T08:24:45;1.52;;;0.70;;
57643;SDS011;43474;46.510;6.686;2023-09-19T08:27:11;2.70;;;1.17;;
57643;SDS011;43474;46.510;6.686;2023-09-19T08:29:37;0.93;;;0.70;;
57643;SDS011;43474;46.510;6.686;2023-09-19T08:32:04;1.77;;;0.70;;
57643;SDS011;43474;46.510;6.686;2023-09-19T08:34:29;2.97;;;0.80;;
57643;SDS011;43474;46.510;6.686;2023-09-19T08:36:59;2.83;;;0.73;;
57643;SDS011;43474;46.510;6.686;2023-09-19T08:39:25;1.52;;;0.85;;
57643;SDS011;43474;46.510;6.686;2023-09-19T08:42:00;1.20;;;0.70;;
57643;SDS011;43474;46.510;6.686;2023-09-19T08:44:27;1.63;;;0.57;;
57643;SDS011;43474;46.510;6.686;2023-09-19T08:47:01;0.98;;;0.70;;
57643;SDS011;43474;46.510;6.686;2023-09-19T08:52:10;1.10;;;0.80;;
57643;SDS011;43474;46.510;6.686;2023-09-19T08:54:41;1.20;;;0.70;;
57643;SDS011;43474;46.510;6.686;2023-09-19T08:57:09;0.90;;;0.70;;
57643;SDS011;43474;46.510;6.686;2023-09-19T08:59:39;1.58;;;0.70;;
57643;SDS011;43474;46.510;6.686;2023-09-19T09:02:10;2.05;;;0.70;;
57643;SDS011;43474;46.510;6.686;2023-09-19T09:04:38;1.70;;;1.02;;
57643;SDS011;43474;46.510;6.686;2023-09-19T09:07:09;1.75;;;0.77;;
57643;SDS011;43474;46.510;6.686;2023-09-19T09:09:36;3.28;;;0.68;;
57643;SDS011;43474;46.510;6.686;2023-09-19T09:12:03;1.67;;;0.90;;
57643;SDS011;43474;46.510;6.686;2023-09-19T09:14:30;1.98;;;0.68;;
57643;SDS011;43474;46.510;6.686;2023-09-19T09:16:56;1.67;;;0.90;;
57643;SDS011;43474;46.510;6.686;2023-09-19T09:19:24;2.05;;;0.82;;
57643;SDS011;43474;46.510;6.686;2023-09-19T09:21:50;1.23;;;0.90;;
57643;SDS011;43474;46.510;6.686;2023-09-19T09:24:29;1.20;;;0.80;;
57643;SDS011;43474;46.510;6.686;2023-09-19T09:26:56;1.95;;;0.82;;
57643;SDS011;43474;46.510;6.686;2023-09-19T09:29:39;1.33;;;0.90;;
57643;SDS011;43474;46.510;6.686;2023-09-19T09:32:20;3.60;;;0.77;;
57643;SDS011;43474;46.510;6.686;2023-09-19T09:34:59;2.28;;;1.02;;
57643;SDS011;43474;46.510;6.686;2023-09-19T09:37:26;1.42;;;0.90;;
57643;SDS011;43474;46.510;6.686;2023-09-19T09:39:56;3.13;;;0.93;;
57643;SDS011;43474;46.510;6.686;2023-09-19T09:42:30;1.02;;;0.70;;
57643;SDS011;43474;46.510;6.686;2023-09-19T09:47:41;1.92;;;0.80;;
57643;SDS011;43474;46.510;6.686;2023-09-19T09:50:09;1.73;;;0.90;;
57643;SDS011;43474;46.510;6.686;2023-09-19T09:52:46;1.20;;;1.10;;
57643;SDS011;43474;46.510;6.686;2023-09-19T09:55:12;1.73;;;0.90;;
57643;SDS011;43474;46.510;6.686;2023-09-19T09:57:38;2.40;;;0.98;;
57643;SDS011;43474;46.510;6.686;2023-09-19T10:00:07;1.58;;;1.10;;
57643;SDS011;43474;46.510;6.686;2023-09-19T10:02:38;1.70;;;1.05;;
57643;SDS011;43474;46.510;6.686;2023-09-19T10:05:11;2.70;;;0.90;;
57643;SDS011;43474;46.510;6.686;2023-09-19T10:07:48;1.17;;;0.80;;
57643;SDS011;43474;46.510;6.686;2023-09-19T10:10:34;2.00;;;1.10;;
57643;SDS011;43474;46.510;6.686;2023-09-19T10:13:07;0.93;;;0.65;;
57643;SDS011;43474;46.510;6.686;2023-09-19T10:15:37;1.38;;;0.70;;
57643;SDS011;43474;46.510;6.686;2023-09-19T10:18:06;1.88;;;0.50;;
57643;SDS011;43474;46.510;6.686;2023-09-19T10:20:36;1.20;;;0.75;;
57643;SDS011;43474;46.510;6.686;2023-09-19T10:23:08;2.20;;;0.50;;
57643;SDS011;43474;46.510;6.686;2023-09-19T10:25:42;1.75;;;0.80;;
57643;SDS011;43474;46.510;6.686;2023-09-19T10:28:09;1.65;;;0.50;;
57643;SDS011;43474;46.510;6.686;2023-09-19T10:30:46;1.50;;;0.60;;
57643;SDS011;43474;46.510;6.686;2023-09-19T10:35:46;0.73;;;0.50;;
57643;SDS011;43474;46.510;6.686;2023-09-19T10:38:15;1.60;;;0.50;;
57643;SDS011;43474;46.510;6.686;2023-09-19T10:40:44;0.65;;;0.50;;
57643;SDS011;43474;46.510;6.686;2023-09-19T10:43:15;1.17;;;0.60;;
57643;SDS011;43474;46.510;6.686;2023-09-19T10:45:45;0.45;;;0.45;;
57643;SDS011;43474;46.510;6.686;2023-09-19T10:48:17;1.13;;;0.57;;
57643;SDS011;43474;46.510;6.686;2023-09-19T10:50:46;1.75;;;0.50;;
57643;SDS011;43474;46.510;6.686;2023-09-19T10:53:20;0.77;;;0.50;;
57643;SDS011;43474;46.510;6.686;2023-09-19T10:55:54;2.42;;;0.60;;
57643;SDS011;43474;46.510;6.686;2023-09-19T10:58:28;0.57;;;0.45;;
57643;SDS011;43474;46.510;6.686;2023-09-19T11:00:59;1.15;;;0.68;;
57643;SDS011;43474;46.510;6.686;2023-09-19T11:03:32;1.52;;;0.50;;
57643;SDS011;43474;46.510;6.686;2023-09-19T11:25:41;0.60;;;0.40;;
57643;SDS011;43474;46.510;6.686;2023-09-19T11:30:39;3.53;;;0.52;;
57643;SDS011;43474;46.510;6.686;2023-09-19T11:43:51;0.68;;;0.30;;
57643;SDS011;43474;46.510;6.686;2023-09-19T11:46:20;0.80;;;0.43;;
57643;SDS011;43474;46.510;6.686;2023-09-19T11:48:50;0.63;;;0.40;;
57643;SDS011;43474;46.510;6.686;2023-09-19T11:51:17;0.70;;;0.50;;
57643;SDS011;43474;46.510;6.686;2023-09-19T11:53:48;0.60;;;0.40;;
57643;SDS011;43474;46.510;6.686;2023-09-19T11:56:18;1.33;;;0.40;;
57643;SDS011;43474;46.510;6.686;2023-09-19T11:58:46;1.13;;;0.40;;
57643;SDS011;43474;46.510;6.686;2023-09-19T12:01:21;0.40;;;0.40;;
57643;SDS011;43474;46.510;6.686;2023-09-19T12:03:52;0.68;;;0.30;;
57643;SDS011;43474;46.510;6.686;2023-09-19T12:06:19;1.88;;;0.50;;
57643;SDS011;43474;46.510;6.686;2023-09-19T12:08:47;0.60;;;0.35;;
57643;SDS011;43474;46.510;6.686;2023-09-19T12:11:14;1.70;;;0.50;;
57643;SDS011;43474;46.510;6.686;2023-09-19T12:13:44;1.65;;;0.60;;
57643;SDS011;43474;46.510;6.686;2023-09-19T12:16:20;0.55;;;0.20;;
57643;SDS011;43474;46.510;6.686;2023-09-19T12:18:47;0.95;;;0.57;;
57643;SDS011;43474;46.510;6.686;2023-09-19T12:23:58;2.38;;;0.60;;
57643;SDS011;43474;46.510;6.686;2023-09-19T12:26:26;0.70;;;0.50;;
57643;SDS011;43474;46.510;6.686;2023-09-19T12:28:54;0.77;;;0.50;;
57643;SDS011;43474;46.510;6.686;2023-09-19T12:31:21;0.93;;;0.40;;
57643;SDS011;43474;46.510;6.686;2023-09-19T12:33:52;1.90;;;0.40;;
57643;SDS011;43474;46.510;6.686;2023-09-19T12:36:22;0.57;;;0.50;;
57643;SDS011;43474;46.510;6.686;2023-09-19T12:38:54;0.50;;;0.40;;
57643;SDS011;43474;46.510;6.686;2023-09-19T12:41:20;0.95;;;0.60;;
57643;SDS011;43474;46.510;6.686;2023-09-19T12:43:47;0.93;;;0.40;;
57643;SDS011;43474;46.510;6.686;2023-09-19T12:46:13;0.60;;;0.40;;
57643;SDS011;43474;46.510;6.686;2023-09-19T12:48:40;1.70;;;0.50;;
57643;SDS011;43474;46.510;6.686;2023-09-19T12:51:09;0.88;;;0.50;;
57643;SDS011;43474;46.510;6.686;2023-09-19T12:53:39;2.28;;;0.38;;
57643;SDS011;43474;46.510;6.686;2023-09-19T12:56:08;0.98;;;0.43;;
57643;SDS011;43474;46.510;6.686;2023-09-19T12:58:55;1.58;;;0.40;;
57643;SDS011;43474;46.510;6.686;2023-09-19T13:01:24;0.40;;;0.40;;
57643;SDS011;43474;46.510;6.686;2023-09-19T13:06:43;0.70;;;0.40;;
57643;SDS011;43474;46.510;6.686;2023-09-19T13:09:11;0.40;;;0.38;;
57643;SDS011;43474;46.510;6.686;2023-09-19T13:11:37;0.80;;;0.40;;
57643;SDS011;43474;46.510;6.686;2023-09-19T13:22:42;1.17;;;0.50;;
57643;SDS011;43474;46.510;6.686;2023-09-19T13:25:19;0.43;;;0.43;;
57643;SDS011;43474;46.510;6.686;2023-09-19T13:27:49;0.55;;;0.35;;
57643;SDS011;43474;46.510;6.686;2023-09-19T13:30:21;0.60;;;0.40;;
57643;SDS011;43474;46.510;6.686;2023-09-19T13:35:18;0.60;;;0.32;;
57643;SDS011;43474;46.510;6.686;2023-09-19T13:37:45;1.73;;;0.40;;
57643;SDS011;43474;46.510;6.686;2023-09-19T13:40:14;1.80;;;0.40;;
57643;SDS011;43474;46.510;6.686;2023-09-19T13:42:41;0.63;;;0.50;;
57643;SDS011;43474;46.510;6.686;2023-09-19T13:45:07;0.88;;;0.50;;
57643;SDS011;43474;46.510;6.686;2023-09-19T13:47:37;1.52;;;0.57;;
57643;SDS011;43474;46.510;6.686;2023-09-19T13:50:03;0.40;;;0.40;;
57643;SDS011;43474;46.510;6.686;2023-09-19T13:52:30;1.40;;;0.45;;
57643;SDS011;43474;46.510;6.686;2023-09-19T13:54:56;0.63;;;0.35;;
57643;SDS011;43474;46.510;6.686;2023-09-19T13:57:23;0.55;;;0.30;;
57643;SDS011;43474;46.510;6.686;2023-09-19T13:59:49;0.40;;;0.20;;
57643;SDS011;43474;46.510;6.686;2023-09-19T14:02:14;0.50;;;0.50;;
57643;SDS011;43474;46.510;6.686;2023-09-19T14:04:43;1.08;;;0.60;;
57643;SDS011;43474;46.510;6.686;2023-09-19T14:07:09;0.80;;;0.32;;
57643;SDS011;43474;46.510;6.686;2023-09-19T14:09:36;1.65;;;0.38;;
57643;SDS011;43474;46.510;6.686;2023-09-19T14:12:02;0.52;;;0.30;;
57643;SDS011;43474;46.510;6.686;2023-09-19T14:14:28;1.27;;;0.45;;
57643;SDS011;43474;46.510;6.686;2023-09-19T14:16:54;1.33;;;0.50;;
57643;SDS011;43474;46.510;6.686;2023-09-19T14:19:20;0.43;;;0.40;;
57643;SDS011;43474;46.510;6.686;2023-09-19T14:21:46;3.60;;;0.57;;
57643;SDS011;43474;46.510;6.686;2023-09-19T14:24:16;0.75;;;0.45;;
57643;SDS011;43474;46.510;6.686;2023-09-19T14:26:43;1.60;;;0.35;;
57643;SDS011;43474;46.510;6.686;2023-09-19T14:29:08;1.70;;;0.50;;
57643;SDS011;43474;46.510;6.686;2023-09-19T14:31:37;0.60;;;0.40;;
57643;SDS011;43474;46.510;6.686;2023-09-19T14:34:03;3.67;;;0.52;;
57643;SDS011;43474;46.510;6.686;2023-09-19T14:36:29;0.77;;;0.50;;
57643;SDS011;43474;46.510;6.686;2023-09-19T14:38:55;0.95;;;0.57;;
57643;SDS011;43474;46.510;6.686;2023-09-19T14:41:22;0.85;;;0.40;;
57643;SDS011;43474;46.510;6.686;2023-09-19T14:43:50;1.30;;;0.50;;
57643;SDS011;43474;46.510;6.686;2023-09-19T14:46:20;0.93;;;0.60;;
57643;SDS011;43474;46.510;6.686;2023-09-19T14:48:48;1.02;;;0.60;;
57643;SDS011;43474;46.510;6.686;2023-09-19T14:51:13;0.80;;;0.60;;
57643;SDS011;43474;46.510;6.686;2023-09-19T14:53:42;0.95;;;0.60;;
57643;SDS011;43474;46.510;6.686;2023-09-19T14:56:08;0.70;;;0.50;;
57643;SDS011;43474;46.510;6.686;2023-09-19T14:58:34;1.02;;;0.50;;
57643;SDS011;43474;46.510;6.686;2023-09-19T15:01:05;0.90;;;0.60;;
57643;SDS011;43474;46.510;6.686;2023-09-19T15:06:04;3.55;;;0.80;;
57643;SDS011;43474;46.510;6.686;2023-09-19T15:08:31;1.03;;;0.90;;
57643;SDS011;43474;46.510;6.686;2023-09-19T15:11:00;1.55;;;0.85;;
57643;SDS011;43474;46.510;6.686;2023-09-19T15:13:29;1.90;;;0.57;;
57643;SDS011;43474;46.510;6.686;2023-09-19T15:16:02;1.85;;;0.55;;
57643;SDS011;43474;46.510;6.686;2023-09-19T15:18:34;1.02;;;0.55;;
57643;SDS011;43474;46.510;6.686;2023-09-19T15:21:03;1.45;;;0.70;;
57643;SDS011;43474;46.510;6.686;2023-09-19T15:23:29;1.00;;;0.70;;
57643;SDS011;43474;46.510;6.686;2023-09-19T15:25:56;3.28;;;0.70;;
57643;SDS011;43474;46.510;6.686;2023-09-19T15:28:22;1.58;;;0.63;;
57643;SDS011;43474;46.510;6.686;2023-09-19T15:30:49;1.25;;;0.77;;
57643;SDS011;43474;46.510;6.686;2023-09-19T15:33:14;2.10;;;0.80;;
57643;SDS011;43474;46.510;6.686;2023-09-19T15:35:40;1.52;;;0.60;;
57643;SDS011;43474;46.510;6.686;2023-09-19T15:38:07;1.98;;;0.70;;
57643;SDS011;43474;46.510;6.686;2023-09-19T15:40:33;1.20;;;0.85;;
57643;SDS011;43474;46.510;6.686;2023-09-19T15:42:58;0.90;;;0.57;;
57643;SDS011;43474;46.510;6.686;2023-09-19T15:45:25;1.88;;;0.80;;
57643;SDS011;43474;46.510;6.686;2023-09-19T15:47:51;1.23;;;0.75;;
57643;SDS011;43474;46.510;6.686;2023-09-19T15:50:16;0.70;;;0.70;;
57643;SDS011;43474;46.510;6.686;2023-09-19T15:52:42;1.55;;;0.82;;
57643;SDS011;43474;46.510;6.686;2023-09-19T15:55:08;1.80;;;0.75;;
57643;SDS011;43474;46.510;6.686;2023-09-19T15:57:38;1.27;;;0.77;;
57643;SDS011;43474;46.510;6.686;2023-09-19T16:00:04;1.23;;;0.73;;
57643;SDS011;43474;46.510;6.686;2023-09-19T16:02:35;1.08;;;0.68;;
57643;SDS011;43474;46.510;6.686;2023-09-19T16:05:01;1.63;;;0.70;;
57643;SDS011;43474;46.510;6.686;2023-09-19T16:07:32;1.17;;;0.80;;
57643;SDS011;43474;46.510;6.686;2023-09-19T16:09:59;1.45;;;0.75;;